Pirtle, Texas
Current Conditions -  °F | °C
As of 1:55 AM on Friday 24 Oct 2014 (Local Time) from KRFI Reporting Station
Clear Clear  
Wind Chill: 52°   Ceiling: Unl
Heat Index: 52°   Visibility: 10mi
Dew Point: 52°   Wind: 0mph
Humidity: 99%   Direction: NA
Pressure: 30.15"   Gusts: NA
Location:  32.2818°N, 94.951°W
Report Text: KRFI 240655Z AUTO 00000KT 10SM CLR 11/11 A3015 RMK AO2 T01130112
Loading
Personal Weather Stations






























Interactive Weather Map New forecast layout! Learn more

10-Day Weather Forecast

Advertisements
Track Severe Weather on mobile